createdAt,value
2023-04-09T00:01:11.430Z,98731.97
2023-04-09T00:03:42.415Z,98739.13
2023-04-09T00:06:15.146Z,98729.72
2023-04-09T00:08:48.126Z,98732.56
2023-04-09T00:11:18.198Z,98727.19
2023-04-09T00:13:48.340Z,98723.78
2023-04-09T00:16:18.380Z,98734.34
2023-04-09T00:18:48.983Z,98729.28
2023-04-09T00:21:19.288Z,98725.25
2023-04-09T00:23:52.097Z,98728.22
2023-04-09T00:26:24.414Z,98726.81
2023-04-09T00:28:54.442Z,98731.56
2023-04-09T00:31:24.518Z,98731.81
2023-04-09T00:33:54.432Z,98731.41
2023-04-09T00:36:26.663Z,98729.84
2023-04-09T00:39:00.237Z,98722.25
2023-04-09T00:41:30.306Z,98714.19
2023-04-09T00:44:00.442Z,98723.34
2023-04-09T00:46:30.526Z,98717.66
2023-04-09T00:49:01.487Z,98717.22
2023-04-09T00:51:31.712Z,98719.28
2023-04-09T00:54:04.294Z,98726.88
2023-04-09T00:56:34.648Z,98720.84
2023-04-09T00:59:05.861Z,98714.19
2023-04-09T01:01:36.391Z,98724.00
2023-04-09T01:04:07.244Z,98722.91
2023-04-09T01:06:45.962Z,98717.66
2023-04-09T01:09:27.940Z,98717.19
2023-04-09T01:12:09.169Z,98720.59
2023-04-09T01:14:44.548Z,98717.56
2023-04-09T01:17:22.057Z,98716.78
2023-04-09T01:20:12.206Z,98715.28
2023-04-09T01:23:00.658Z,98709.81
2023-04-09T01:25:46.724Z,98719.47
2023-04-09T01:28:22.510Z,98707.94
2023-04-09T01:30:59.204Z,98708.25
2023-04-09T01:33:32.585Z,98711.69
2023-04-09T01:36:04.547Z,98715.78
2023-04-09T01:38:36.563Z,98718.97
2023-04-09T01:41:07.393Z,98720.25
2023-04-09T01:43:41.260Z,98721.41
2023-04-09T01:46:12.498Z,98714.16
2023-04-09T01:48:43.059Z,98710.22
2023-04-09T01:51:14.325Z,98717.38
2023-04-09T01:53:45.042Z,98714.19
2023-04-09T01:56:15.389Z,98726.94
2023-04-09T01:58:48.391Z,98725.81
2023-04-09T02:01:36.546Z,98721.22
2023-04-09T02:04:12.956Z,98720.53
2023-04-09T02:06:48.461Z,98718.00
2023-04-09T02:09:21.587Z,98719.47
2023-04-09T02:11:53.772Z,98721.50
2023-04-09T02:14:28.935Z,98723.88
2023-04-09T02:16:59.551Z,98716.56
2023-04-09T02:19:42.309Z,98719.25
2023-04-09T02:22:12.786Z,98715.53
2023-04-09T02:24:43.497Z,98709.13
2023-04-09T02:27:14.241Z,98703.56
2023-04-09T02:29:47.765Z,98713.50
2023-04-09T02:32:18.056Z,98708.44
2023-04-09T02:34:48.755Z,98709.53
2023-04-09T02:37:18.731Z,98710.97
2023-04-09T02:39:50.724Z,98705.53
2023-04-09T02:42:20.774Z,98709.28
2023-04-09T02:44:53.428Z,98713.47
2023-04-09T02:47:23.769Z,98708.41
2023-04-09T02:49:53.805Z,98718.19
2023-04-09T02:52:25.241Z,98706.31
2023-04-09T02:54:55.770Z,98709.69
2023-04-09T02:57:25.778Z,98720.13
2023-04-09T02:59:58.606Z,98708.56
2023-04-09T03:02:29.068Z,98711.38
2023-04-09T03:04:59.200Z,98707.78
2023-04-09T03:07:29.493Z,98708.41
2023-04-09T03:09:59.836Z,98697.03
2023-04-09T03:12:29.784Z,98694.88
2023-04-09T03:15:02.513Z,98693.22
2023-04-09T03:17:32.755Z,98697.84
2023-04-09T03:20:02.755Z,98694.50
2023-04-09T03:22:39.742Z,98697.50
2023-04-09T03:25:22.096Z,98694.13
2023-04-09T03:27:55.732Z,98701.97
2023-04-09T03:30:48.630Z,98691.59
2023-04-09T03:33:20.033Z,98690.34
2023-04-09T03:36:04.281Z,98697.94
2023-04-09T03:38:54.939Z,98694.91
2023-04-09T03:41:30.355Z,98693.09
2023-04-09T03:44:03.059Z,98693.41
2023-04-09T03:46:42.443Z,98694.84
2023-04-09T03:49:16.653Z,98697.66
2023-04-09T03:51:47.956Z,98691.16
2023-04-09T03:54:18.612Z,98694.00
2023-04-09T03:56:49.540Z,98690.50
2023-04-09T03:59:24.233Z,98691.75
2023-04-09T04:01:57.601Z,98687.53
2023-04-09T04:04:28.874Z,98688.13
2023-04-09T04:07:01.212Z,98684.56
2023-04-09T04:09:40.873Z,98684.31
2023-04-09T04:12:15.383Z,98691.25
2023-04-09T04:15:04.178Z,98684.34
2023-04-09T04:17:59.504Z,98690.16
2023-04-09T04:20:41.784Z,98695.47
2023-04-09T04:23:15.904Z,98690.72
2023-04-09T04:25:54.867Z,98692.50
2023-04-09T04:28:31.895Z,98695.38
2023-04-09T04:31:02.746Z,98699.25
2023-04-09T04:33:38.691Z,98702.00
2023-04-09T04:36:15.254Z,98698.66
2023-04-09T04:38:50.816Z,98709.16
2023-04-09T04:41:29.583Z,98704.28
2023-04-09T04:44:11.207Z,98704.94
2023-04-09T04:46:41.718Z,98707.47
2023-04-09T04:49:14.306Z,98709.03
2023-04-09T04:51:49.969Z,98710.09
2023-04-09T04:54:20.759Z,98700.34
2023-04-09T04:56:57.436Z,98706.03
2023-04-09T04:59:41.880Z,98707.19
2023-04-09T05:02:14.344Z,98707.69
2023-04-09T05:05:05.687Z,98710.28
2023-04-09T05:07:41.852Z,98708.56
2023-04-09T05:10:13.424Z,98713.31
2023-04-09T05:12:45.778Z,98706.94
2023-04-09T05:15:22.869Z,98717.19
2023-04-09T05:17:53.113Z,98722.16
2023-04-09T05:20:26.023Z,98725.13
2023-04-09T05:23:06.321Z,98726.31
2023-04-09T05:25:42.740Z,98724.38
2023-04-09T05:28:21.038Z,98727.16
2023-04-09T05:30:56.341Z,98722.78
2023-04-09T05:33:26.768Z,98726.13
2023-04-09T05:35:59.653Z,98725.97
2023-04-09T05:38:30.037Z,98724.00
2023-04-09T05:41:02.374Z,98722.59
2023-04-09T05:43:32.903Z,98727.50
2023-04-09T05:46:03.078Z,98729.00
2023-04-09T05:48:33.178Z,98730.44
2023-04-09T05:51:07.610Z,98733.28
2023-04-09T05:53:37.723Z,98745.28
2023-04-09T05:56:16.378Z,98745.22
2023-04-09T05:58:55.784Z,98738.19
2023-04-09T06:01:26.046Z,98738.88
2023-04-09T06:03:58.433Z,98735.69
2023-04-09T06:06:34.537Z,98740.03
2023-04-09T06:09:05.003Z,98744.53
2023-04-09T06:11:35.633Z,98744.75
2023-04-09T06:14:05.812Z,98741.84
2023-04-09T06:16:36.684Z,98740.50
2023-04-09T06:19:06.749Z,98736.97
2023-04-09T06:21:40.813Z,98744.88
2023-04-09T06:24:10.850Z,98739.66
2023-04-09T06:26:40.961Z,98744.44
2023-04-09T06:29:10.993Z,98741.53
2023-04-09T06:31:41.141Z,98739.72
2023-04-09T06:34:11.343Z,98739.50
2023-04-09T06:36:44.700Z,98733.63
2023-04-09T06:39:14.826Z,98734.47
2023-04-09T06:41:44.925Z,98731.13
2023-04-09T06:44:27.259Z,98738.97
2023-04-09T06:46:57.269Z,98737.38
2023-04-09T06:49:27.376Z,98742.41
2023-04-09T06:52:00.075Z,98742.09
2023-04-09T06:54:30.201Z,98743.16
2023-04-09T06:57:00.181Z,98745.97
2023-04-09T06:59:30.276Z,98740.78
2023-04-09T07:02:00.761Z,98749.69
2023-04-09T07:04:31.140Z,98746.50
2023-04-09T07:07:03.964Z,98739.78
2023-04-09T07:09:34.273Z,98749.63
2023-04-09T07:12:04.648Z,98742.28
2023-04-09T07:14:34.701Z,98748.25
2023-04-09T07:17:05.018Z,98738.53
2023-04-09T07:19:35.030Z,98743.09
2023-04-09T07:22:09.878Z,98753.03
2023-04-09T07:24:39.814Z,98752.28
2023-04-09T07:27:10.889Z,98749.44
2023-04-09T07:29:41.547Z,98754.19
2023-04-09T07:32:11.744Z,98753.19
2023-04-09T07:34:43.874Z,98759.91
2023-04-09T07:37:17.044Z,98757.47
2023-04-09T07:39:47.705Z,98765.09
2023-04-09T07:42:18.154Z,98765.25
2023-04-09T07:44:48.191Z,98770.00
2023-04-09T07:47:18.544Z,98765.88
2023-04-09T07:49:48.627Z,98766.19
2023-04-09T07:52:21.311Z,98774.84
2023-04-09T07:54:51.373Z,98778.81
2023-04-09T07:57:21.309Z,98773.59
2023-04-09T07:59:51.372Z,98774.53
2023-04-09T08:02:22.177Z,98769.94
2023-04-09T08:04:52.439Z,98773.94
2023-04-09T08:07:25.516Z,98780.03
2023-04-09T08:09:55.651Z,98775.56
2023-04-09T08:12:26.058Z,98778.13
2023-04-09T08:14:56.281Z,98767.19
2023-04-09T08:17:26.553Z,98769.53
2023-04-09T08:19:56.916Z,98775.66
2023-04-09T08:22:29.478Z,98774.84
2023-04-09T08:25:01.416Z,98781.53
2023-04-09T08:27:33.509Z,98783.28
2023-04-09T08:30:04.005Z,98784.53
2023-04-09T08:32:34.327Z,98779.44
2023-04-09T08:35:04.349Z,98781.13
2023-04-09T08:37:36.954Z,98787.19
2023-04-09T08:40:07.927Z,98783.38
2023-04-09T08:42:39.809Z,98790.25
2023-04-09T08:45:11.846Z,98788.69
2023-04-09T08:47:44.649Z,98796.56
2023-04-09T08:50:14.678Z,98793.97
2023-04-09T08:52:50.366Z,98795.81
2023-04-09T08:55:20.397Z,98796.53
2023-04-09T08:57:50.423Z,98794.31
2023-04-09T09:00:20.514Z,98797.81
2023-04-09T09:03:07.281Z,98803.69
2023-04-09T09:05:42.171Z,98805.41
2023-04-09T09:08:16.840Z,98802.28
2023-04-09T09:10:48.452Z,98806.16
2023-04-09T09:13:25.714Z,98803.53
2023-04-09T09:15:57.230Z,98799.25
2023-04-09T09:18:42.244Z,98801.22
2023-04-09T09:21:15.888Z,98801.59
2023-04-09T09:23:51.311Z,98802.19
2023-04-09T09:26:23.407Z,98799.84
2023-04-09T09:28:55.025Z,98798.25
2023-04-09T09:31:26.413Z,98803.19
2023-04-09T09:33:57.225Z,98801.28
2023-04-09T09:36:37.754Z,98807.47
2023-04-09T09:39:13.166Z,98809.13
2023-04-09T09:41:44.122Z,98802.81
2023-04-09T09:44:35.688Z,98795.94
2023-04-09T09:47:06.976Z,98799.22
2023-04-09T09:49:37.239Z,98807.38
2023-04-09T09:52:12.251Z,98802.16
2023-04-09T09:54:46.425Z,98795.97
2023-04-09T09:57:19.342Z,98792.50
2023-04-09T09:59:56.907Z,98794.41
2023-04-09T10:02:31.727Z,98789.69
2023-04-09T10:05:04.438Z,98778.63
2023-04-09T10:07:36.660Z,98787.63
2023-04-09T10:10:13.908Z,98791.19
2023-04-09T10:12:45.520Z,98788.22
2023-04-09T10:15:16.081Z,98786.91
2023-04-09T10:17:48.982Z,98790.16
2023-04-09T10:20:22.738Z,98797.81
2023-04-09T10:22:55.817Z,98788.28
2023-04-09T10:25:29.655Z,98790.50
2023-04-09T10:28:03.233Z,98784.09
2023-04-09T10:30:37.553Z,98791.69
2023-04-09T10:33:14.681Z,98783.53
2023-04-09T10:35:45.430Z,98789.75
2023-04-09T10:38:17.942Z,98784.47
2023-04-09T10:40:54.845Z,98779.56
2023-04-09T10:43:25.546Z,98780.84
2023-04-09T10:45:55.902Z,98783.16
2023-04-09T10:48:27.138Z,98782.00
2023-04-09T10:50:58.433Z,98777.00
2023-04-09T10:53:31.313Z,98775.44
2023-04-09T10:56:04.319Z,98770.84
2023-04-09T10:58:34.892Z,98774.06
2023-04-09T11:01:05.536Z,98762.53
2023-04-09T11:03:46.197Z,98762.50
2023-04-09T11:06:18.809Z,98760.47
2023-04-09T11:08:48.800Z,98764.34
2023-04-09T11:11:21.862Z,98762.00
2023-04-09T11:13:52.242Z,98768.19
2023-04-09T11:16:24.310Z,98763.03
2023-04-09T11:18:56.388Z,98764.47
2023-04-09T11:21:31.876Z,98757.56
2023-04-09T11:24:02.201Z,98749.75
2023-04-09T11:26:40.570Z,98750.03
2023-04-09T11:29:11.242Z,98743.84
2023-04-09T11:31:41.284Z,98745.63
2023-04-09T11:34:14.255Z,98746.19
2023-04-09T11:36:44.273Z,98749.28
2023-04-09T11:39:14.788Z,98735.97
2023-04-09T11:41:48.071Z,98750.66
2023-04-09T11:44:18.385Z,98740.31
2023-04-09T11:46:49.375Z,98743.22
2023-04-09T11:49:20.358Z,98740.97
2023-04-09T11:51:51.049Z,98740.88
2023-04-09T11:54:21.276Z,98741.53
2023-04-09T11:56:56.519Z,98740.34
2023-04-09T11:59:26.852Z,98731.47
2023-04-09T12:01:57.099Z,98730.47
2023-04-09T12:04:27.697Z,98734.13
2023-04-09T12:07:02.043Z,98739.44
2023-04-09T12:09:33.805Z,98746.94
2023-04-09T12:12:11.913Z,98735.19
2023-04-09T12:14:49.095Z,98729.09
2023-04-09T12:17:18.983Z,98731.78
2023-04-09T12:19:51.691Z,98720.28
2023-04-09T12:22:21.645Z,98728.19
2023-04-09T12:24:52.064Z,98722.25
2023-04-09T12:27:24.893Z,98723.63
2023-04-09T12:29:54.919Z,98729.44
2023-04-09T12:32:24.992Z,98734.00
2023-04-09T12:34:55.200Z,98721.75
2023-04-09T12:37:25.597Z,98720.59
2023-04-09T12:39:55.662Z,98715.00
2023-04-09T12:42:28.292Z,98721.91
2023-04-09T12:44:58.658Z,98718.13
2023-04-09T12:47:29.184Z,98716.13
2023-04-09T12:49:59.324Z,98708.84
2023-04-09T12:52:29.383Z,98701.03
2023-04-09T12:54:59.569Z,98698.13
2023-04-09T12:57:32.485Z,98702.66
2023-04-09T13:00:04.996Z,98698.53
2023-04-09T13:02:35.074Z,98695.06
2023-04-09T13:05:05.680Z,98693.94
2023-04-09T13:07:36.007Z,98690.28
2023-04-09T13:10:06.658Z,98690.22
2023-04-09T13:12:39.417Z,98681.38
2023-04-09T13:15:10.611Z,98684.72
2023-04-09T13:17:43.883Z,98682.97
2023-04-09T13:20:14.863Z,98684.56
2023-04-09T13:22:49.163Z,98676.34
2023-04-09T13:25:19.639Z,98687.66
2023-04-09T13:27:52.306Z,98677.41
2023-04-09T13:30:22.888Z,98676.28
2023-04-09T13:32:53.299Z,98667.31
2023-04-09T13:35:23.859Z,98664.84
2023-04-09T13:37:53.824Z,98658.47
2023-04-09T13:40:24.008Z,98665.16
2023-04-09T13:42:56.927Z,98665.97
2023-04-09T13:45:27.647Z,98658.38
2023-04-09T13:47:57.885Z,98657.69
2023-04-09T13:50:28.349Z,98652.63
2023-04-09T13:52:58.622Z,98649.47
2023-04-09T13:55:28.956Z,98639.19
2023-04-09T13:58:01.856Z,98641.88
2023-04-09T14:00:32.431Z,98641.03
2023-04-09T14:03:03.408Z,98646.41
2023-04-09T14:05:33.406Z,98647.78
2023-04-09T14:08:04.008Z,98645.22
2023-04-09T14:10:34.136Z,98640.81
2023-04-09T14:13:10.632Z,98641.84
2023-04-09T14:15:42.202Z,98639.56
2023-04-09T14:18:12.259Z,98636.97
2023-04-09T14:20:42.453Z,98639.59
2023-04-09T14:23:13.005Z,98628.13
2023-04-09T14:25:43.034Z,98627.94
2023-04-09T14:28:15.977Z,98624.22
2023-04-09T14:30:46.560Z,98620.72
2023-04-09T14:33:16.495Z,98625.63
2023-04-09T14:35:46.690Z,98621.34
2023-04-09T14:38:17.974Z,98628.94
2023-04-09T14:40:48.238Z,98608.75
2023-04-09T14:43:21.446Z,98619.25
2023-04-09T14:45:52.060Z,98619.06
2023-04-09T14:48:22.357Z,98621.09
2023-04-09T14:50:52.677Z,98609.97
2023-04-09T14:53:22.788Z,98621.13
2023-04-09T14:55:52.805Z,98618.66
2023-04-09T14:58:25.796Z,98620.31
2023-04-09T15:00:57.611Z,98618.72
2023-04-09T15:03:32.061Z,98617.16
2023-04-09T15:06:02.399Z,98611.06
2023-04-09T15:08:32.423Z,98623.16
2023-04-09T15:11:02.554Z,98606.59
2023-04-09T15:13:35.807Z,98612.78
2023-04-09T15:16:06.188Z,98606.00
2023-04-09T15:18:37.687Z,98612.66
2023-04-09T15:21:08.890Z,98610.66
2023-04-09T15:23:39.778Z,98609.06
2023-04-09T15:26:10.058Z,98612.00
2023-04-09T15:28:42.774Z,98614.69
2023-04-09T15:31:12.970Z,98602.22
2023-04-09T15:33:45.872Z,98609.25
2023-04-09T15:36:15.885Z,98610.94
2023-04-09T15:38:46.001Z,98599.75
2023-04-09T15:41:17.174Z,98608.19
2023-04-09T15:43:49.784Z,98608.34
2023-04-09T15:46:20.072Z,98614.66
2023-04-09T15:48:50.529Z,98612.13
2023-04-09T15:51:20.652Z,98616.63
2023-04-09T15:53:50.768Z,98613.13
2023-04-09T15:56:21.350Z,98616.19
2023-04-09T15:58:54.440Z,98609.78
2023-04-09T16:01:24.675Z,98608.44
2023-04-09T16:03:55.843Z,98602.75
2023-04-09T16:06:26.374Z,98609.63
2023-04-09T16:08:56.988Z,98598.69
2023-04-09T16:11:26.932Z,98598.25
2023-04-09T16:13:59.909Z,98598.88
2023-04-09T16:16:30.059Z,98586.78
2023-04-09T16:19:01.190Z,98592.38
2023-04-09T16:21:31.291Z,98594.34
2023-04-09T16:24:01.456Z,98600.44
2023-04-09T16:26:31.703Z,98614.03
2023-04-09T16:29:04.722Z,98607.81
2023-04-09T16:31:35.251Z,98604.84
2023-04-09T16:34:05.660Z,98607.81
2023-04-09T16:36:37.908Z,98602.19
2023-04-09T16:39:08.285Z,98603.41
2023-04-09T16:41:38.472Z,98603.84
2023-04-09T16:44:11.129Z,98602.66
2023-04-09T16:46:41.256Z,98593.09
2023-04-09T16:49:11.223Z,98594.03
2023-04-09T16:51:41.289Z,98587.91
2023-04-09T16:54:11.432Z,98600.63
2023-04-09T16:56:41.968Z,98606.47
2023-04-09T16:59:18.105Z,98604.78
2023-04-09T17:01:49.377Z,98600.53
2023-04-09T17:04:19.933Z,98606.53
2023-04-09T17:06:50.084Z,98604.41
2023-04-09T17:09:20.341Z,98610.47
2023-04-09T17:11:53.128Z,98610.09
2023-04-09T17:14:27.666Z,98605.84
2023-04-09T17:16:57.622Z,98603.69
2023-04-09T17:19:28.019Z,98608.06
2023-04-09T17:21:58.544Z,98603.16
2023-04-09T17:24:29.259Z,98602.00
2023-04-09T17:27:00.102Z,98612.13
2023-04-09T17:29:33.302Z,98606.50
2023-04-09T17:32:03.272Z,98609.56
2023-04-09T17:34:33.627Z,98606.69
2023-04-09T17:37:03.671Z,98612.66
2023-04-09T17:39:34.343Z,98604.63
2023-04-09T17:42:05.148Z,98607.06
2023-04-09T17:44:38.602Z,98602.03
2023-04-09T17:47:09.649Z,98614.59
2023-04-09T17:49:39.763Z,98609.72
2023-04-09T17:52:09.760Z,98617.31
2023-04-09T17:54:40.280Z,98614.75
2023-04-09T17:57:11.000Z,98618.75
2023-04-09T17:59:43.882Z,98622.47
2023-04-09T18:02:14.308Z,98619.28
2023-04-09T18:04:44.911Z,98625.34
2023-04-09T18:07:15.082Z,98630.47
2023-04-09T18:09:45.638Z,98638.44
2023-04-09T18:12:16.202Z,98642.63
2023-04-09T18:14:50.515Z,98644.09
2023-04-09T18:17:20.781Z,98654.97
2023-04-09T18:19:51.291Z,98647.00
2023-04-09T18:22:21.438Z,98650.72
2023-04-09T18:24:52.354Z,98654.06
2023-04-09T18:27:22.643Z,98651.63
2023-04-09T18:29:56.072Z,98655.53
2023-04-09T18:32:27.162Z,98662.88
2023-04-09T18:34:57.593Z,98658.00
2023-04-09T18:37:28.134Z,98669.91
2023-04-09T18:40:00.217Z,98668.03
2023-04-09T18:42:31.919Z,98672.19
2023-04-09T18:45:04.760Z,98676.22
2023-04-09T18:47:34.988Z,98684.19
2023-04-09T18:50:05.464Z,98688.16
2023-04-09T18:52:38.672Z,98694.16
2023-04-09T18:55:09.957Z,98694.78
2023-04-09T18:57:40.103Z,98696.06
2023-04-09T19:00:15.096Z,98707.16
2023-04-09T19:02:45.654Z,98700.75
2023-04-09T19:05:16.024Z,98702.31
2023-04-09T19:07:46.363Z,98693.34
2023-04-09T19:10:16.595Z,98698.09
2023-04-09T19:12:51.106Z,98697.38
2023-04-09T19:15:26.266Z,98693.38
2023-04-09T19:17:56.689Z,98703.66
2023-04-09T19:20:27.371Z,98695.81
2023-04-09T19:22:58.559Z,98704.44
2023-04-09T19:25:28.928Z,98704.44
2023-04-09T19:27:59.071Z,98709.22
2023-04-09T19:30:32.139Z,98708.00
2023-04-09T19:33:02.428Z,98705.66
2023-04-09T19:35:35.932Z,98707.53
2023-04-09T19:38:06.694Z,98703.22
2023-04-09T19:40:37.306Z,98699.25
2023-04-09T19:43:07.748Z,98704.44
2023-04-09T19:45:42.586Z,98707.94
2023-04-09T19:48:13.052Z,98712.00
2023-04-09T19:50:44.173Z,98716.56
2023-04-09T19:53:14.766Z,98709.69
2023-04-09T19:55:45.484Z,98705.72
2023-04-09T19:58:16.047Z,98704.00
2023-04-09T20:00:50.050Z,98707.34
2023-04-09T20:03:20.467Z,98709.56
2023-04-09T20:05:51.348Z,98707.34
2023-04-09T20:08:21.954Z,98713.53
2023-04-09T20:10:52.956Z,98704.25
2023-04-09T20:13:23.558Z,98703.84
2023-04-09T20:15:57.078Z,98701.38
2023-04-09T20:18:28.183Z,98707.81
2023-04-09T20:20:58.659Z,98705.72
2023-04-09T20:23:29.221Z,98706.06
2023-04-09T20:25:59.587Z,98709.47
2023-04-09T20:28:29.999Z,98704.25
2023-04-09T20:31:04.939Z,98706.44
2023-04-09T20:33:35.190Z,98714.81
2023-04-09T20:36:05.619Z,98718.66
2023-04-09T20:38:36.380Z,98721.94
2023-04-09T20:41:08.136Z,98718.97
2023-04-09T20:43:38.912Z,98719.53
2023-04-09T20:46:12.387Z,98717.16
2023-04-09T20:48:43.055Z,98720.06
2023-04-09T20:51:14.649Z,98716.97
2023-04-09T20:53:45.904Z,98723.13
2023-04-09T20:56:16.526Z,98722.16
2023-04-09T20:58:46.917Z,98714.25
2023-04-09T21:01:20.087Z,98706.22
2023-04-09T21:03:50.916Z,98717.63
2023-04-09T21:06:21.680Z,98713.66
2023-04-09T21:08:52.247Z,98714.78
2023-04-09T21:11:22.747Z,98709.88
2023-04-09T21:13:55.274Z,98720.09
2023-04-09T21:16:30.090Z,98709.28
2023-04-09T21:19:07.349Z,98703.53
2023-04-09T21:21:40.439Z,98703.53
2023-04-09T21:24:10.788Z,98698.22
2023-04-09T21:26:51.042Z,98697.03
2023-04-09T21:29:22.763Z,98689.59
2023-04-09T21:31:56.031Z,98691.34
2023-04-09T21:34:26.401Z,98686.59
2023-04-09T21:36:57.584Z,98697.56
2023-04-09T21:39:28.256Z,98696.50
2023-04-09T21:41:58.815Z,98705.56
2023-04-09T21:44:29.371Z,98705.88
2023-04-09T21:47:07.592Z,98694.56
2023-04-09T21:49:40.875Z,98691.50
2023-04-09T21:52:15.208Z,98692.56
2023-04-09T21:54:46.072Z,98693.66
2023-04-09T21:57:16.444Z,98691.78
2023-04-09T21:59:46.737Z,98696.59
2023-04-09T22:02:19.952Z,98696.22
2023-04-09T22:04:50.853Z,98688.00
2023-04-09T22:07:21.312Z,98688.13
2023-04-09T22:09:51.563Z,98693.44
2023-04-09T22:12:21.868Z,98692.53
2023-04-09T22:14:52.491Z,98696.50
2023-04-09T22:17:25.693Z,98700.22
2023-04-09T22:19:56.090Z,98705.91
2023-04-09T22:22:26.500Z,98702.34
2023-04-09T22:24:56.801Z,98699.97
2023-04-09T22:27:27.275Z,98698.25
2023-04-09T22:29:57.758Z,98693.59
2023-04-09T22:32:33.551Z,98693.56
2023-04-09T22:35:04.343Z,98683.63
2023-04-09T22:37:34.642Z,98682.03
2023-04-09T22:40:05.777Z,98683.63
2023-04-09T22:42:36.650Z,98678.19
2023-04-09T22:45:07.365Z,98682.84
2023-04-09T22:47:40.426Z,98684.56
2023-04-09T22:50:11.776Z,98681.38
2023-04-09T22:52:42.217Z,98675.25
2023-04-09T22:55:13.794Z,98675.09
2023-04-09T22:57:44.562Z,98674.00
2023-04-09T23:00:15.556Z,98674.94
2023-04-09T23:02:51.076Z,98670.00
2023-04-09T23:05:21.748Z,98674.28
2023-04-09T23:07:52.606Z,98674.78
2023-04-09T23:10:22.873Z,98665.47
2023-04-09T23:12:53.377Z,98668.00
2023-04-09T23:15:24.004Z,98666.03
2023-04-09T23:17:57.142Z,98664.19
2023-04-09T23:20:27.601Z,98664.19
2023-04-09T23:22:57.951Z,98666.31
2023-04-09T23:25:28.257Z,98659.53
2023-04-09T23:27:58.553Z,98654.03
2023-04-09T23:30:28.930Z,98659.75
2023-04-09T23:33:02.000Z,98659.84
2023-04-09T23:35:32.694Z,98661.72
2023-04-09T23:38:03.396Z,98662.72
2023-04-09T23:40:34.091Z,98653.84
2023-04-09T23:43:05.067Z,98652.94
2023-04-09T23:45:35.697Z,98647.25
2023-04-09T23:48:09.592Z,98653.25
2023-04-09T23:50:40.502Z,98644.88
2023-04-09T23:53:11.650Z,98654.84
2023-04-09T23:55:42.805Z,98657.09
2023-04-09T23:58:13.177Z,98660.81
